sensor_id;sensor_type;location;lat;lon;timestamp;P1;durP1;ratioP1;P2;durP2;ratioP2
58876;SDS011;44659;47.002;9.536;2024-01-06T00:01:34;3.65;;;1.80;;
58876;SDS011;44659;47.002;9.536;2024-01-06T00:03:59;2.63;;;1.58;;
58876;SDS011;44659;47.002;9.536;2024-01-06T00:06:25;5.53;;;3.20;;
58876;SDS011;44659;47.002;9.536;2024-01-06T00:08:51;6.07;;;3.88;;
58876;SDS011;44659;47.002;9.536;2024-01-06T00:11:22;6.85;;;4.55;;
58876;SDS011;44659;47.002;9.536;2024-01-06T00:13:48;6.03;;;4.07;;
58876;SDS011;44659;47.002;9.536;2024-01-06T00:16:18;6.75;;;4.45;;
58876;SDS011;44659;47.002;9.536;2024-01-06T00:18:45;6.78;;;4.22;;
58876;SDS011;44659;47.002;9.536;2024-01-06T00:21:14;6.75;;;4.55;;
58876;SDS011;44659;47.002;9.536;2024-01-06T00:23:40;6.93;;;4.60;;
58876;SDS011;44659;47.002;9.536;2024-01-06T00:26:07;6.32;;;4.13;;
58876;SDS011;44659;47.002;9.536;2024-01-06T00:28:33;6.88;;;4.47;;
58876;SDS011;44659;47.002;9.536;2024-01-06T00:30:59;5.90;;;4.20;;
58876;SDS011;44659;47.002;9.536;2024-01-06T00:33:25;6.50;;;4.55;;
58876;SDS011;44659;47.002;9.536;2024-01-06T00:35:50;5.95;;;3.63;;
58876;SDS011;44659;47.002;9.536;2024-01-06T00:38:16;4.93;;;3.20;;
58876;SDS011;44659;47.002;9.536;2024-01-06T00:40:42;5.18;;;3.08;;
58876;SDS011;44659;47.002;9.536;2024-01-06T00:43:07;4.88;;;3.00;;
58876;SDS011;44659;47.002;9.536;2024-01-06T00:45:33;5.53;;;3.75;;
58876;SDS011;44659;47.002;9.536;2024-01-06T00:47:59;6.95;;;4.50;;
58876;SDS011;44659;47.002;9.536;2024-01-06T00:50:24;6.05;;;4.28;;
58876;SDS011;44659;47.002;9.536;2024-01-06T00:52:50;6.18;;;3.90;;
58876;SDS011;44659;47.002;9.536;2024-01-06T00:55:18;5.93;;;3.72;;
58876;SDS011;44659;47.002;9.536;2024-01-06T00:57:46;5.68;;;3.28;;
58876;SDS011;44659;47.002;9.536;2024-01-06T01:00:13;5.43;;;3.30;;
58876;SDS011;44659;47.002;9.536;2024-01-06T01:02:39;5.30;;;3.45;;
58876;SDS011;44659;47.002;9.536;2024-01-06T01:05:05;5.93;;;4.07;;
58876;SDS011;44659;47.002;9.536;2024-01-06T01:07:32;5.70;;;3.58;;
58876;SDS011;44659;47.002;9.536;2024-01-06T01:09:58;5.25;;;3.30;;
58876;SDS011;44659;47.002;9.536;2024-01-06T01:12:24;5.43;;;3.13;;
58876;SDS011;44659;47.002;9.536;2024-01-06T01:14:50;5.82;;;3.40;;
58876;SDS011;44659;47.002;9.536;2024-01-06T01:17:16;5.88;;;3.72;;
58876;SDS011;44659;47.002;9.536;2024-01-06T01:19:42;6.15;;;3.53;;
58876;SDS011;44659;47.002;9.536;2024-01-06T01:22:08;5.32;;;3.30;;
58876;SDS011;44659;47.002;9.536;2024-01-06T01:24:34;5.00;;;3.17;;
58876;SDS011;44659;47.002;9.536;2024-01-06T01:26:59;6.03;;;3.50;;
58876;SDS011;44659;47.002;9.536;2024-01-06T01:29:25;6.28;;;3.63;;
58876;SDS011;44659;47.002;9.536;2024-01-06T01:31:51;5.22;;;3.50;;
58876;SDS011;44659;47.002;9.536;2024-01-06T01:34:17;4.38;;;2.95;;
58876;SDS011;44659;47.002;9.536;2024-01-06T01:36:42;4.40;;;2.70;;
58876;SDS011;44659;47.002;9.536;2024-01-06T01:39:09;4.15;;;2.40;;
58876;SDS011;44659;47.002;9.536;2024-01-06T01:41:35;4.03;;;2.42;;
58876;SDS011;44659;47.002;9.536;2024-01-06T01:44:00;4.88;;;3.17;;
58876;SDS011;44659;47.002;9.536;2024-01-06T01:46:27;4.40;;;2.67;;
58876;SDS011;44659;47.002;9.536;2024-01-06T01:48:54;4.35;;;2.58;;
58876;SDS011;44659;47.002;9.536;2024-01-06T01:51:21;4.07;;;2.17;;
58876;SDS011;44659;47.002;9.536;2024-01-06T01:53:48;3.20;;;1.98;;
58876;SDS011;44659;47.002;9.536;2024-01-06T01:56:14;2.92;;;1.98;;
58876;SDS011;44659;47.002;9.536;2024-01-06T01:58:41;3.35;;;1.90;;
58876;SDS011;44659;47.002;9.536;2024-01-06T02:01:07;3.30;;;1.90;;
58876;SDS011;44659;47.002;9.536;2024-01-06T02:03:34;4.00;;;1.80;;
58876;SDS011;44659;47.002;9.536;2024-01-06T02:06:00;3.17;;;1.80;;
58876;SDS011;44659;47.002;9.536;2024-01-06T02:08:26;4.18;;;2.50;;
58876;SDS011;44659;47.002;9.536;2024-01-06T02:10:55;5.15;;;3.22;;
58876;SDS011;44659;47.002;9.536;2024-01-06T02:13:22;4.63;;;3.00;;
58876;SDS011;44659;47.002;9.536;2024-01-06T02:15:48;5.70;;;3.28;;
58876;SDS011;44659;47.002;9.536;2024-01-06T02:18:14;5.38;;;3.15;;
58876;SDS011;44659;47.002;9.536;2024-01-06T02:20:40;5.30;;;3.63;;
58876;SDS011;44659;47.002;9.536;2024-01-06T02:23:08;5.03;;;3.45;;
58876;SDS011;44659;47.002;9.536;2024-01-06T02:25:34;5.43;;;3.17;;
58876;SDS011;44659;47.002;9.536;2024-01-06T02:28:00;4.38;;;2.83;;
58876;SDS011;44659;47.002;9.536;2024-01-06T02:30:26;5.25;;;3.08;;
58876;SDS011;44659;47.002;9.536;2024-01-06T02:32:52;3.28;;;2.10;;
58876;SDS011;44659;47.002;9.536;2024-01-06T02:35:17;3.08;;;1.77;;
58876;SDS011;44659;47.002;9.536;2024-01-06T02:37:44;4.80;;;2.05;;
58876;SDS011;44659;47.002;9.536;2024-01-06T02:40:10;3.63;;;1.92;;
58876;SDS011;44659;47.002;9.536;2024-01-06T02:42:36;2.55;;;1.77;;
58876;SDS011;44659;47.002;9.536;2024-01-06T02:45:02;3.40;;;1.92;;
58876;SDS011;44659;47.002;9.536;2024-01-06T02:47:28;3.22;;;1.77;;
58876;SDS011;44659;47.002;9.536;2024-01-06T02:49:54;3.00;;;1.85;;
58876;SDS011;44659;47.002;9.536;2024-01-06T02:52:19;2.88;;;1.80;;
58876;SDS011;44659;47.002;9.536;2024-01-06T02:54:45;3.42;;;2.00;;
58876;SDS011;44659;47.002;9.536;2024-01-06T02:57:10;3.97;;;2.20;;
58876;SDS011;44659;47.002;9.536;2024-01-06T02:59:38;3.22;;;2.13;;
58876;SDS011;44659;47.002;9.536;2024-01-06T03:02:04;3.40;;;2.00;;
58876;SDS011;44659;47.002;9.536;2024-01-06T03:04:30;3.15;;;2.00;;
58876;SDS011;44659;47.002;9.536;2024-01-06T03:06:55;3.15;;;1.80;;
58876;SDS011;44659;47.002;9.536;2024-01-06T03:09:21;2.50;;;1.77;;
58876;SDS011;44659;47.002;9.536;2024-01-06T03:11:47;3.47;;;1.90;;
58876;SDS011;44659;47.002;9.536;2024-01-06T03:14:12;3.78;;;2.38;;
58876;SDS011;44659;47.002;9.536;2024-01-06T03:16:38;3.47;;;2.10;;
58876;SDS011;44659;47.002;9.536;2024-01-06T03:19:04;3.25;;;2.00;;
58876;SDS011;44659;47.002;9.536;2024-01-06T03:21:30;3.10;;;2.10;;
58876;SDS011;44659;47.002;9.536;2024-01-06T03:23:55;3.67;;;2.63;;
58876;SDS011;44659;47.002;9.536;2024-01-06T03:26:21;3.78;;;2.30;;
58876;SDS011;44659;47.002;9.536;2024-01-06T03:28:49;4.53;;;2.67;;
58876;SDS011;44659;47.002;9.536;2024-01-06T03:31:15;2.88;;;1.95;;
58876;SDS011;44659;47.002;9.536;2024-01-06T03:33:42;4.45;;;2.30;;
58876;SDS011;44659;47.002;9.536;2024-01-06T03:36:09;3.67;;;2.35;;
58876;SDS011;44659;47.002;9.536;2024-01-06T03:38:35;3.72;;;2.17;;
58876;SDS011;44659;47.002;9.536;2024-01-06T03:41:00;3.42;;;1.80;;
58876;SDS011;44659;47.002;9.536;2024-01-06T03:43:26;3.03;;;1.92;;
58876;SDS011;44659;47.002;9.536;2024-01-06T03:45:51;3.92;;;2.22;;
58876;SDS011;44659;47.002;9.536;2024-01-06T03:48:17;3.25;;;1.85;;
58876;SDS011;44659;47.002;9.536;2024-01-06T03:50:43;3.55;;;2.15;;
58876;SDS011;44659;47.002;9.536;2024-01-06T03:53:08;3.15;;;1.73;;
58876;SDS011;44659;47.002;9.536;2024-01-06T03:55:34;3.20;;;2.10;;
58876;SDS011;44659;47.002;9.536;2024-01-06T03:58:00;4.20;;;2.08;;
58876;SDS011;44659;47.002;9.536;2024-01-06T04:00:25;3.10;;;2.00;;
58876;SDS011;44659;47.002;9.536;2024-01-06T04:02:51;4.47;;;2.05;;
58876;SDS011;44659;47.002;9.536;2024-01-06T04:05:17;3.08;;;2.10;;
58876;SDS011;44659;47.002;9.536;2024-01-06T04:07:44;3.88;;;2.17;;
58876;SDS011;44659;47.002;9.536;2024-01-06T04:10:10;2.75;;;1.83;;
58876;SDS011;44659;47.002;9.536;2024-01-06T04:12:35;3.42;;;2.10;;
58876;SDS011;44659;47.002;9.536;2024-01-06T04:15:01;3.92;;;2.30;;
58876;SDS011;44659;47.002;9.536;2024-01-06T04:17:27;4.45;;;2.67;;
58876;SDS011;44659;47.002;9.536;2024-01-06T04:19:53;4.80;;;2.50;;
58876;SDS011;44659;47.002;9.536;2024-01-06T04:22:18;3.90;;;2.50;;
58876;SDS011;44659;47.002;9.536;2024-01-06T04:24:44;4.43;;;2.60;;
58876;SDS011;44659;47.002;9.536;2024-01-06T04:27:10;3.67;;;2.25;;
58876;SDS011;44659;47.002;9.536;2024-01-06T04:29:35;3.42;;;2.20;;
58876;SDS011;44659;47.002;9.536;2024-01-06T04:32:01;4.88;;;2.00;;
58876;SDS011;44659;47.002;9.536;2024-01-06T04:34:27;3.45;;;2.05;;
58876;SDS011;44659;47.002;9.536;2024-01-06T04:36:53;3.00;;;1.83;;
58876;SDS011;44659;47.002;9.536;2024-01-06T04:39:18;4.38;;;2.60;;
58876;SDS011;44659;47.002;9.536;2024-01-06T04:41:44;3.67;;;2.30;;
58876;SDS011;44659;47.002;9.536;2024-01-06T04:44:10;4.20;;;2.70;;
58876;SDS011;44659;47.002;9.536;2024-01-06T04:46:35;3.70;;;2.47;;
58876;SDS011;44659;47.002;9.536;2024-01-06T04:49:01;4.45;;;2.65;;
58876;SDS011;44659;47.002;9.536;2024-01-06T04:51:27;3.92;;;2.42;;
58876;SDS011;44659;47.002;9.536;2024-01-06T04:53:53;3.60;;;2.38;;
58876;SDS011;44659;47.002;9.536;2024-01-06T04:56:19;3.70;;;2.35;;
58876;SDS011;44659;47.002;9.536;2024-01-06T04:58:44;3.80;;;2.63;;
58876;SDS011;44659;47.002;9.536;2024-01-06T05:01:10;3.72;;;2.50;;
58876;SDS011;44659;47.002;9.536;2024-01-06T05:03:37;4.18;;;2.80;;
58876;SDS011;44659;47.002;9.536;2024-01-06T05:06:02;4.25;;;2.45;;
58876;SDS011;44659;47.002;9.536;2024-01-06T05:08:28;3.83;;;2.20;;
58876;SDS011;44659;47.002;9.536;2024-01-06T05:10:56;4.05;;;2.60;;
58876;SDS011;44659;47.002;9.536;2024-01-06T05:13:21;4.55;;;2.67;;
58876;SDS011;44659;47.002;9.536;2024-01-06T05:15:47;4.35;;;2.95;;
58876;SDS011;44659;47.002;9.536;2024-01-06T05:18:13;5.00;;;2.88;;
58876;SDS011;44659;47.002;9.536;2024-01-06T05:20:39;4.15;;;2.38;;
58876;SDS011;44659;47.002;9.536;2024-01-06T05:23:06;4.38;;;2.63;;
58876;SDS011;44659;47.002;9.536;2024-01-06T05:25:32;4.93;;;3.05;;
58876;SDS011;44659;47.002;9.536;2024-01-06T05:27:58;4.40;;;2.90;;
58876;SDS011;44659;47.002;9.536;2024-01-06T05:30:24;4.88;;;2.92;;
58876;SDS011;44659;47.002;9.536;2024-01-06T05:32:49;4.60;;;2.70;;
58876;SDS011;44659;47.002;9.536;2024-01-06T05:35:18;3.65;;;2.40;;
58876;SDS011;44659;47.002;9.536;2024-01-06T05:37:44;4.10;;;2.78;;
58876;SDS011;44659;47.002;9.536;2024-01-06T05:40:09;4.18;;;2.67;;
58876;SDS011;44659;47.002;9.536;2024-01-06T05:42:36;4.72;;;2.40;;
58876;SDS011;44659;47.002;9.536;2024-01-06T05:45:05;2.67;;;1.70;;
58876;SDS011;44659;47.002;9.536;2024-01-06T05:47:31;3.53;;;2.20;;
58876;SDS011;44659;47.002;9.536;2024-01-06T05:49:57;4.38;;;2.38;;
58876;SDS011;44659;47.002;9.536;2024-01-06T05:52:23;3.60;;;2.35;;
58876;SDS011;44659;47.002;9.536;2024-01-06T05:54:48;3.80;;;2.35;;
58876;SDS011;44659;47.002;9.536;2024-01-06T05:57:14;4.35;;;2.80;;
58876;SDS011;44659;47.002;9.536;2024-01-06T05:59:40;4.90;;;2.70;;
58876;SDS011;44659;47.002;9.536;2024-01-06T06:02:05;3.80;;;2.28;;
58876;SDS011;44659;47.002;9.536;2024-01-06T06:04:31;3.83;;;2.47;;
58876;SDS011;44659;47.002;9.536;2024-01-06T06:06:57;4.63;;;3.03;;
58876;SDS011;44659;47.002;9.536;2024-01-06T06:09:22;4.45;;;2.95;;
58876;SDS011;44659;47.002;9.536;2024-01-06T06:11:48;4.40;;;2.78;;
58876;SDS011;44659;47.002;9.536;2024-01-06T06:14:14;5.45;;;3.22;;
58876;SDS011;44659;47.002;9.536;2024-01-06T06:16:39;4.60;;;3.13;;
58876;SDS011;44659;47.002;9.536;2024-01-06T06:19:05;4.68;;;3.00;;
58876;SDS011;44659;47.002;9.536;2024-01-06T06:21:32;5.38;;;3.30;;
58876;SDS011;44659;47.002;9.536;2024-01-06T06:23:59;6.88;;;3.47;;
58876;SDS011;44659;47.002;9.536;2024-01-06T06:26:25;4.88;;;3.22;;
58876;SDS011;44659;47.002;9.536;2024-01-06T06:28:52;4.50;;;3.22;;
58876;SDS011;44659;47.002;9.536;2024-01-06T06:31:18;4.75;;;3.15;;
58876;SDS011;44659;47.002;9.536;2024-01-06T06:33:44;5.07;;;3.10;;
58876;SDS011;44659;47.002;9.536;2024-01-06T06:36:10;4.97;;;3.47;;
58876;SDS011;44659;47.002;9.536;2024-01-06T06:38:36;5.75;;;3.60;;
58876;SDS011;44659;47.002;9.536;2024-01-06T06:41:01;6.50;;;3.50;;
58876;SDS011;44659;47.002;9.536;2024-01-06T06:43:27;5.82;;;3.17;;
58876;SDS011;44659;47.002;9.536;2024-01-06T06:45:53;4.80;;;3.08;;
58876;SDS011;44659;47.002;9.536;2024-01-06T06:48:20;4.93;;;3.03;;
58876;SDS011;44659;47.002;9.536;2024-01-06T06:50:46;4.70;;;2.65;;
58876;SDS011;44659;47.002;9.536;2024-01-06T06:53:12;4.10;;;2.55;;
58876;SDS011;44659;47.002;9.536;2024-01-06T06:55:38;3.95;;;2.47;;
58876;SDS011;44659;47.002;9.536;2024-01-06T06:58:04;6.13;;;2.75;;
58876;SDS011;44659;47.002;9.536;2024-01-06T07:00:30;4.75;;;2.92;;
58876;SDS011;44659;47.002;9.536;2024-01-06T07:02:56;4.20;;;2.85;;
58876;SDS011;44659;47.002;9.536;2024-01-06T07:05:22;4.22;;;2.67;;
58876;SDS011;44659;47.002;9.536;2024-01-06T07:07:48;3.90;;;2.50;;
58876;SDS011;44659;47.002;9.536;2024-01-06T07:10:14;3.97;;;2.20;;
58876;SDS011;44659;47.002;9.536;2024-01-06T07:12:39;4.03;;;2.13;;
58876;SDS011;44659;47.002;9.536;2024-01-06T07:15:05;3.60;;;2.28;;
58876;SDS011;44659;47.002;9.536;2024-01-06T07:17:32;3.55;;;2.10;;
58876;SDS011;44659;47.002;9.536;2024-01-06T07:19:58;3.97;;;2.28;;
58876;SDS011;44659;47.002;9.536;2024-01-06T07:22:24;3.78;;;2.20;;
58876;SDS011;44659;47.002;9.536;2024-01-06T07:24:49;4.20;;;2.70;;
58876;SDS011;44659;47.002;9.536;2024-01-06T07:27:15;3.80;;;2.40;;
58876;SDS011;44659;47.002;9.536;2024-01-06T07:29:41;4.75;;;2.30;;
58876;SDS011;44659;47.002;9.536;2024-01-06T07:32:06;4.80;;;2.75;;
58876;SDS011;44659;47.002;9.536;2024-01-06T07:34:32;4.35;;;2.63;;
58876;SDS011;44659;47.002;9.536;2024-01-06T07:36:58;3.83;;;2.53;;
58876;SDS011;44659;47.002;9.536;2024-01-06T07:39:24;4.55;;;2.45;;
58876;SDS011;44659;47.002;9.536;2024-01-06T07:41:50;3.42;;;2.10;;
58876;SDS011;44659;47.002;9.536;2024-01-06T07:44:16;4.45;;;2.50;;
58876;SDS011;44659;47.002;9.536;2024-01-06T07:46:47;3.47;;;2.30;;
58876;SDS011;44659;47.002;9.536;2024-01-06T07:49:13;3.47;;;2.25;;
58876;SDS011;44659;47.002;9.536;2024-01-06T07:51:40;3.38;;;2.13;;
58876;SDS011;44659;47.002;9.536;2024-01-06T07:54:06;2.95;;;1.85;;
58876;SDS011;44659;47.002;9.536;2024-01-06T07:56:34;3.40;;;2.03;;
58876;SDS011;44659;47.002;9.536;2024-01-06T07:59:00;3.65;;;2.33;;
58876;SDS011;44659;47.002;9.536;2024-01-06T08:01:27;3.80;;;2.28;;
58876;SDS011;44659;47.002;9.536;2024-01-06T08:03:52;3.55;;;2.20;;
58876;SDS011;44659;47.002;9.536;2024-01-06T08:06:18;4.07;;;2.35;;
58876;SDS011;44659;47.002;9.536;2024-01-06T08:08:44;3.15;;;1.90;;
58876;SDS011;44659;47.002;9.536;2024-01-06T08:11:11;4.60;;;2.33;;
58876;SDS011;44659;47.002;9.536;2024-01-06T08:13:37;4.07;;;2.10;;
58876;SDS011;44659;47.002;9.536;2024-01-06T08:16:03;4.20;;;2.53;;
58876;SDS011;44659;47.002;9.536;2024-01-06T08:18:29;3.78;;;2.30;;
58876;SDS011;44659;47.002;9.536;2024-01-06T08:20:55;6.07;;;3.42;;
58876;SDS011;44659;47.002;9.536;2024-01-06T08:23:21;3.35;;;1.90;;
58876;SDS011;44659;47.002;9.536;2024-01-06T08:25:46;4.32;;;2.47;;
58876;SDS011;44659;47.002;9.536;2024-01-06T08:28:13;2.83;;;1.63;;
58876;SDS011;44659;47.002;9.536;2024-01-06T08:30:44;4.22;;;1.60;;
58876;SDS011;44659;47.002;9.536;2024-01-06T08:33:10;4.65;;;1.90;;
58876;SDS011;44659;47.002;9.536;2024-01-06T08:35:35;2.42;;;1.80;;
58876;SDS011;44659;47.002;9.536;2024-01-06T08:38:08;3.47;;;2.03;;
58876;SDS011;44659;47.002;9.536;2024-01-06T08:40:34;3.33;;;1.90;;
58876;SDS011;44659;47.002;9.536;2024-01-06T08:43:00;2.92;;;1.90;;
58876;SDS011;44659;47.002;9.536;2024-01-06T08:45:26;4.03;;;1.88;;
58876;SDS011;44659;47.002;9.536;2024-01-06T08:47:52;2.90;;;1.58;;
58876;SDS011;44659;47.002;9.536;2024-01-06T08:50:17;2.50;;;1.60;;
58876;SDS011;44659;47.002;9.536;2024-01-06T08:52:43;2.10;;;1.30;;
58876;SDS011;44659;47.002;9.536;2024-01-06T08:55:09;2.40;;;1.50;;
58876;SDS011;44659;47.002;9.536;2024-01-06T08:57:34;2.72;;;1.75;;
58876;SDS011;44659;47.002;9.536;2024-01-06T09:00:00;2.03;;;1.30;;
58876;SDS011;44659;47.002;9.536;2024-01-06T09:02:26;2.10;;;1.40;;
58876;SDS011;44659;47.002;9.536;2024-01-06T09:04:51;3.65;;;1.60;;
58876;SDS011;44659;47.002;9.536;2024-01-06T09:07:17;2.45;;;1.60;;
58876;SDS011;44659;47.002;9.536;2024-01-06T09:09:43;1.48;;;1.23;;
58876;SDS011;44659;47.002;9.536;2024-01-06T09:12:09;3.58;;;1.77;;
58876;SDS011;44659;47.002;9.536;2024-01-06T09:14:35;4.32;;;2.38;;
58876;SDS011;44659;47.002;9.536;2024-01-06T09:17:00;2.97;;;1.77;;
58876;SDS011;44659;47.002;9.536;2024-01-06T09:19:26;3.50;;;1.88;;
58876;SDS011;44659;47.002;9.536;2024-01-06T09:21:53;4.30;;;1.98;;
58876;SDS011;44659;47.002;9.536;2024-01-06T09:24:20;3.22;;;1.85;;
58876;SDS011;44659;47.002;9.536;2024-01-06T09:26:46;3.92;;;1.80;;
58876;SDS011;44659;47.002;9.536;2024-01-06T09:29:11;5.72;;;1.83;;
58876;SDS011;44659;47.002;9.536;2024-01-06T09:31:37;3.53;;;2.38;;
58876;SDS011;44659;47.002;9.536;2024-01-06T09:34:03;3.58;;;2.15;;
58876;SDS011;44659;47.002;9.536;2024-01-06T09:36:32;4.32;;;2.40;;
58876;SDS011;44659;47.002;9.536;2024-01-06T09:38:58;5.53;;;2.00;;
58876;SDS011;44659;47.002;9.536;2024-01-06T09:41:24;3.80;;;1.90;;
58876;SDS011;44659;47.002;9.536;2024-01-06T09:43:50;3.33;;;1.90;;
58876;SDS011;44659;47.002;9.536;2024-01-06T09:46:26;3.42;;;1.95;;
58876;SDS011;44659;47.002;9.536;2024-01-06T09:48:54;3.67;;;2.10;;
58876;SDS011;44659;47.002;9.536;2024-01-06T09:51:22;3.40;;;2.03;;
58876;SDS011;44659;47.002;9.536;2024-01-06T09:56:28;3.08;;;1.77;;
58876;SDS011;44659;47.002;9.536;2024-01-06T09:58:55;4.97;;;2.55;;
58876;SDS011;44659;47.002;9.536;2024-01-06T10:01:21;4.25;;;2.25;;
58876;SDS011;44659;47.002;9.536;2024-01-06T10:03:48;4.95;;;2.42;;
58876;SDS011;44659;47.002;9.536;2024-01-06T10:06:14;4.20;;;2.38;;
58876;SDS011;44659;47.002;9.536;2024-01-06T10:08:44;3.20;;;2.08;;
58876;SDS011;44659;47.002;9.536;2024-01-06T10:11:16;4.43;;;2.60;;
58876;SDS011;44659;47.002;9.536;2024-01-06T10:13:43;4.07;;;2.30;;
58876;SDS011;44659;47.002;9.536;2024-01-06T10:16:09;5.70;;;2.28;;
58876;SDS011;44659;47.002;9.536;2024-01-06T10:18:35;3.85;;;2.40;;
58876;SDS011;44659;47.002;9.536;2024-01-06T10:21:04;3.47;;;2.13;;
58876;SDS011;44659;47.002;9.536;2024-01-06T10:23:33;3.42;;;2.30;;
58876;SDS011;44659;47.002;9.536;2024-01-06T10:25:59;3.92;;;2.28;;
58876;SDS011;44659;47.002;9.536;2024-01-06T10:28:25;3.22;;;2.10;;
58876;SDS011;44659;47.002;9.536;2024-01-06T10:30:51;2.97;;;1.80;;
58876;SDS011;44659;47.002;9.536;2024-01-06T10:33:18;1.98;;;1.45;;
58876;SDS011;44659;47.002;9.536;2024-01-06T10:35:48;4.28;;;2.00;;
58876;SDS011;44659;47.002;9.536;2024-01-06T10:38:14;3.22;;;1.75;;
58876;SDS011;44659;47.002;9.536;2024-01-06T10:41:02;3.08;;;1.83;;
58876;SDS011;44659;47.002;9.536;2024-01-06T10:43:34;3.63;;;1.60;;
58876;SDS011;44659;47.002;9.536;2024-01-06T10:46:03;3.35;;;1.60;;
58876;SDS011;44659;47.002;9.536;2024-01-06T10:48:34;3.90;;;2.10;;
58876;SDS011;44659;47.002;9.536;2024-01-06T10:51:00;3.78;;;2.03;;
58876;SDS011;44659;47.002;9.536;2024-01-06T10:53:32;3.47;;;2.00;;
58876;SDS011;44659;47.002;9.536;2024-01-06T10:56:03;3.25;;;2.00;;
58876;SDS011;44659;47.002;9.536;2024-01-06T10:58:30;6.22;;;1.92;;
58876;SDS011;44659;47.002;9.536;2024-01-06T11:00:58;3.45;;;2.00;;
58876;SDS011;44659;47.002;9.536;2024-01-06T11:03:25;3.50;;;2.10;;
58876;SDS011;44659;47.002;9.536;2024-01-06T11:05:54;3.50;;;2.03;;
58876;SDS011;44659;47.002;9.536;2024-01-06T11:08:19;3.60;;;2.13;;
58876;SDS011;44659;47.002;9.536;2024-01-06T11:10:47;4.10;;;2.47;;
58876;SDS011;44659;47.002;9.536;2024-01-06T11:13:14;11.02;;;2.88;;
58876;SDS011;44659;47.002;9.536;2024-01-06T11:15:49;4.35;;;2.30;;
58876;SDS011;44659;47.002;9.536;2024-01-06T11:21:18;3.83;;;2.25;;
58876;SDS011;44659;47.002;9.536;2024-01-06T11:26:50;3.38;;;2.10;;
58876;SDS011;44659;47.002;9.536;2024-01-06T11:29:17;5.70;;;2.40;;
58876;SDS011;44659;47.002;9.536;2024-01-06T11:34:48;4.10;;;2.28;;
58876;SDS011;44659;47.002;9.536;2024-01-06T11:37:53;3.88;;;2.40;;
58876;SDS011;44659;47.002;9.536;2024-01-06T11:42:46;3.95;;;2.40;;
58876;SDS011;44659;47.002;9.536;2024-01-06T11:45:13;4.68;;;2.40;;
58876;SDS011;44659;47.002;9.536;2024-01-06T11:47:40;2.78;;;1.77;;
58876;SDS011;44659;47.002;9.536;2024-01-06T11:50:13;3.13;;;1.75;;
58876;SDS011;44659;47.002;9.536;2024-01-06T11:52:40;3.50;;;2.20;;
58876;SDS011;44659;47.002;9.536;2024-01-06T11:55:07;4.85;;;1.90;;
58876;SDS011;44659;47.002;9.536;2024-01-06T11:57:34;3.70;;;2.05;;
58876;SDS011;44659;47.002;9.536;2024-01-06T12:00:00;5.22;;;2.72;;
58876;SDS011;44659;47.002;9.536;2024-01-06T12:02:25;3.53;;;2.00;;
58876;SDS011;44659;47.002;9.536;2024-01-06T12:04:52;4.68;;;2.00;;
58876;SDS011;44659;47.002;9.536;2024-01-06T12:07:19;5.32;;;2.17;;
58876;SDS011;44659;47.002;9.536;2024-01-06T12:09:47;3.75;;;1.95;;
58876;SDS011;44659;47.002;9.536;2024-01-06T12:12:17;3.13;;;1.83;;
58876;SDS011;44659;47.002;9.536;2024-01-06T12:14:43;4.32;;;2.15;;
58876;SDS011;44659;47.002;9.536;2024-01-06T12:17:11;3.40;;;1.83;;
58876;SDS011;44659;47.002;9.536;2024-01-06T12:19:38;3.22;;;2.05;;
58876;SDS011;44659;47.002;9.536;2024-01-06T12:22:07;3.97;;;2.08;;
58876;SDS011;44659;47.002;9.536;2024-01-06T12:24:36;3.15;;;1.73;;
58876;SDS011;44659;47.002;9.536;2024-01-06T12:27:01;3.53;;;2.05;;
58876;SDS011;44659;47.002;9.536;2024-01-06T12:29:27;3.85;;;2.10;;
58876;SDS011;44659;47.002;9.536;2024-01-06T12:32:00;2.80;;;1.75;;
58876;SDS011;44659;47.002;9.536;2024-01-06T12:34:25;3.25;;;2.05;;
58876;SDS011;44659;47.002;9.536;2024-01-06T12:36:52;6.15;;;3.05;;
58876;SDS011;44659;47.002;9.536;2024-01-06T12:39:20;4.05;;;1.80;;
58876;SDS011;44659;47.002;9.536;2024-01-06T12:41:46;4.55;;;2.00;;
58876;SDS011;44659;47.002;9.536;2024-01-06T12:44:12;4.65;;;2.10;;
58876;SDS011;44659;47.002;9.536;2024-01-06T12:46:38;5.90;;;1.90;;
58876;SDS011;44659;47.002;9.536;2024-01-06T12:49:04;2.92;;;1.67;;
58876;SDS011;44659;47.002;9.536;2024-01-06T12:51:30;3.78;;;1.67;;
58876;SDS011;44659;47.002;9.536;2024-01-06T12:53:56;2.88;;;1.70;;
58876;SDS011;44659;47.002;9.536;2024-01-06T12:56:21;3.75;;;2.00;;
58876;SDS011;44659;47.002;9.536;2024-01-06T12:58:47;3.50;;;1.85;;
58876;SDS011;44659;47.002;9.536;2024-01-06T13:01:13;2.63;;;1.48;;
58876;SDS011;44659;47.002;9.536;2024-01-06T13:03:39;4.00;;;1.88;;
58876;SDS011;44659;47.002;9.536;2024-01-06T13:06:05;3.97;;;2.00;;
58876;SDS011;44659;47.002;9.536;2024-01-06T13:08:31;3.08;;;1.73;;
58876;SDS011;44659;47.002;9.536;2024-01-06T13:10:56;3.97;;;1.95;;
58876;SDS011;44659;47.002;9.536;2024-01-06T13:13:22;4.72;;;2.13;;
58876;SDS011;44659;47.002;9.536;2024-01-06T13:15:48;4.07;;;2.22;;
58876;SDS011;44659;47.002;9.536;2024-01-06T13:18:14;4.80;;;2.78;;
58876;SDS011;44659;47.002;9.536;2024-01-06T13:20:42;5.32;;;2.08;;
58876;SDS011;44659;47.002;9.536;2024-01-06T13:23:08;3.80;;;2.22;;
58876;SDS011;44659;47.002;9.536;2024-01-06T13:25:34;3.13;;;1.80;;
58876;SDS011;44659;47.002;9.536;2024-01-06T13:28:01;3.53;;;1.92;;
58876;SDS011;44659;47.002;9.536;2024-01-06T13:30:26;5.00;;;2.33;;
58876;SDS011;44659;47.002;9.536;2024-01-06T13:32:53;3.78;;;1.85;;
58876;SDS011;44659;47.002;9.536;2024-01-06T13:35:19;4.70;;;1.67;;
58876;SDS011;44659;47.002;9.536;2024-01-06T13:37:46;4.30;;;1.90;;
58876;SDS011;44659;47.002;9.536;2024-01-06T13:40:13;4.40;;;1.92;;
58876;SDS011;44659;47.002;9.536;2024-01-06T13:42:39;4.72;;;1.80;;
58876;SDS011;44659;47.002;9.536;2024-01-06T13:45:06;4.85;;;1.75;;
58876;SDS011;44659;47.002;9.536;2024-01-06T13:47:32;3.95;;;1.83;;
58876;SDS011;44659;47.002;9.536;2024-01-06T13:49:58;4.43;;;1.85;;
58876;SDS011;44659;47.002;9.536;2024-01-06T13:52:24;3.67;;;1.70;;
58876;SDS011;44659;47.002;9.536;2024-01-06T13:54:50;4.13;;;1.83;;
58876;SDS011;44659;47.002;9.536;2024-01-06T13:57:16;3.47;;;1.88;;
58876;SDS011;44659;47.002;9.536;2024-01-06T13:59:42;4.45;;;1.90;;
58876;SDS011;44659;47.002;9.536;2024-01-06T14:02:08;5.85;;;1.70;;
58876;SDS011;44659;47.002;9.536;2024-01-06T14:04:35;3.35;;;1.80;;
58876;SDS011;44659;47.002;9.536;2024-01-06T14:07:01;3.75;;;1.88;;
58876;SDS011;44659;47.002;9.536;2024-01-06T14:09:27;4.65;;;2.38;;
58876;SDS011;44659;47.002;9.536;2024-01-06T14:11:53;3.70;;;1.90;;
58876;SDS011;44659;47.002;9.536;2024-01-06T14:14:20;5.18;;;2.10;;
58876;SDS011;44659;47.002;9.536;2024-01-06T14:16:46;5.95;;;1.83;;
58876;SDS011;44659;47.002;9.536;2024-01-06T14:19:12;4.20;;;1.85;;
58876;SDS011;44659;47.002;9.536;2024-01-06T14:21:39;4.45;;;2.22;;
58876;SDS011;44659;47.002;9.536;2024-01-06T14:24:05;4.57;;;2.28;;
58876;SDS011;44659;47.002;9.536;2024-01-06T14:26:32;4.43;;;1.98;;
58876;SDS011;44659;47.002;9.536;2024-01-06T14:28:58;4.07;;;2.38;;
58876;SDS011;44659;47.002;9.536;2024-01-06T14:31:24;5.70;;;2.78;;
58876;SDS011;44659;47.002;9.536;2024-01-06T14:33:52;5.40;;;2.15;;
58876;SDS011;44659;47.002;9.536;2024-01-06T14:36:18;4.70;;;2.20;;
58876;SDS011;44659;47.002;9.536;2024-01-06T14:38:44;6.15;;;2.50;;
58876;SDS011;44659;47.002;9.536;2024-01-06T14:41:09;6.25;;;2.13;;
58876;SDS011;44659;47.002;9.536;2024-01-06T14:43:35;5.03;;;2.30;;
58876;SDS011;44659;47.002;9.536;2024-01-06T14:46:01;3.60;;;2.10;;
58876;SDS011;44659;47.002;9.536;2024-01-06T14:48:27;4.07;;;2.22;;
58876;SDS011;44659;47.002;9.536;2024-01-06T14:50:53;4.88;;;2.30;;
58876;SDS011;44659;47.002;9.536;2024-01-06T14:53:19;10.40;;;3.00;;
58876;SDS011;44659;47.002;9.536;2024-01-06T14:55:44;4.88;;;2.53;;
58876;SDS011;44659;47.002;9.536;2024-01-06T14:58:10;4.97;;;2.50;;